sensor_id;sensor_type;location;lat;lon;timestamp;P1;durP1;ratioP1;P2;durP2;ratioP2
71867;SDS011;59738;48.324;14.230;2022-07-10T00:01:07;6.68;;;4.90;;
71867;SDS011;59738;48.324;14.230;2022-07-10T00:03:34;7.38;;;5.05;;
71867;SDS011;59738;48.324;14.230;2022-07-10T00:06:03;7.20;;;4.80;;
71867;SDS011;59738;48.324;14.230;2022-07-10T00:08:30;5.72;;;4.93;;
71867;SDS011;59738;48.324;14.230;2022-07-10T00:10:58;6.93;;;4.80;;
71867;SDS011;59738;48.324;14.230;2022-07-10T00:13:27;6.43;;;5.00;;
71867;SDS011;59738;48.324;14.230;2022-07-10T00:15:55;7.13;;;4.70;;
71867;SDS011;59738;48.324;14.230;2022-07-10T00:18:22;7.93;;;4.50;;
71867;SDS011;59738;48.324;14.230;2022-07-10T00:20:50;7.22;;;5.00;;
71867;SDS011;59738;48.324;14.230;2022-07-10T00:23:18;8.90;;;4.60;;
71867;SDS011;59738;48.324;14.230;2022-07-10T00:25:45;6.15;;;4.65;;
71867;SDS011;59738;48.324;14.230;2022-07-10T00:28:13;5.15;;;4.32;;
71867;SDS011;59738;48.324;14.230;2022-07-10T00:30:42;6.85;;;3.97;;
71867;SDS011;59738;48.324;14.230;2022-07-10T00:33:10;6.93;;;4.43;;
71867;SDS011;59738;48.324;14.230;2022-07-10T00:35:38;7.30;;;4.77;;
71867;SDS011;59738;48.324;14.230;2022-07-10T00:38:05;7.90;;;4.80;;
71867;SDS011;59738;48.324;14.230;2022-07-10T00:40:33;6.55;;;4.28;;
71867;SDS011;59738;48.324;14.230;2022-07-10T00:43:00;5.78;;;3.88;;
71867;SDS011;59738;48.324;14.230;2022-07-10T00:45:28;8.93;;;4.28;;
71867;SDS011;59738;48.324;14.230;2022-07-10T00:47:57;8.03;;;4.30;;
71867;SDS011;59738;48.324;14.230;2022-07-10T00:50:26;5.75;;;3.88;;
71867;SDS011;59738;48.324;14.230;2022-07-10T00:52:54;8.00;;;4.80;;
71867;SDS011;59738;48.324;14.230;2022-07-10T00:55:22;7.40;;;4.28;;
71867;SDS011;59738;48.324;14.230;2022-07-10T00:57:50;7.32;;;3.80;;
71867;SDS011;59738;48.324;14.230;2022-07-10T01:00:18;6.30;;;4.03;;
71867;SDS011;59738;48.324;14.230;2022-07-10T01:02:45;5.15;;;3.65;;
71867;SDS011;59738;48.324;14.230;2022-07-10T01:05:14;6.55;;;3.80;;
71867;SDS011;59738;48.324;14.230;2022-07-10T01:07:42;4.72;;;3.72;;
71867;SDS011;59738;48.324;14.230;2022-07-10T01:10:10;6.60;;;4.10;;
71867;SDS011;59738;48.324;14.230;2022-07-10T01:12:37;8.47;;;3.97;;
71867;SDS011;59738;48.324;14.230;2022-07-10T01:15:06;4.30;;;3.53;;
71867;SDS011;59738;48.324;14.230;2022-07-10T01:17:34;4.20;;;3.72;;
71867;SDS011;59738;48.324;14.230;2022-07-10T01:20:04;5.95;;;3.70;;
71867;SDS011;59738;48.324;14.230;2022-07-10T01:22:34;5.28;;;4.15;;
71867;SDS011;59738;48.324;14.230;2022-07-10T01:25:03;5.13;;;4.20;;
71867;SDS011;59738;48.324;14.230;2022-07-10T01:27:32;7.65;;;4.25;;
71867;SDS011;59738;48.324;14.230;2022-07-10T01:30:00;6.15;;;4.70;;
71867;SDS011;59738;48.324;14.230;2022-07-10T01:32:28;6.25;;;4.38;;
71867;SDS011;59738;48.324;14.230;2022-07-10T01:35:04;5.13;;;4.10;;
71867;SDS011;59738;48.324;14.230;2022-07-10T01:37:34;6.60;;;4.63;;
71867;SDS011;59738;48.324;14.230;2022-07-10T01:40:02;10.23;;;4.90;;
71867;SDS011;59738;48.324;14.230;2022-07-10T01:42:30;8.25;;;4.63;;
71867;SDS011;59738;48.324;14.230;2022-07-10T01:44:58;6.35;;;5.03;;
71867;SDS011;59738;48.324;14.230;2022-07-10T01:47:26;6.63;;;4.90;;
71867;SDS011;59738;48.324;14.230;2022-07-10T01:49:53;7.20;;;4.37;;
71867;SDS011;59738;48.324;14.230;2022-07-10T01:52:22;6.95;;;4.93;;
71867;SDS011;59738;48.324;14.230;2022-07-10T01:54:51;6.75;;;4.93;;
71867;SDS011;59738;48.324;14.230;2022-07-10T01:57:19;8.93;;;4.60;;
71867;SDS011;59738;48.324;14.230;2022-07-10T01:59:47;8.45;;;5.43;;
71867;SDS011;59738;48.324;14.230;2022-07-10T02:02:15;5.33;;;4.23;;
71867;SDS011;59738;48.324;14.230;2022-07-10T02:04:42;6.95;;;4.68;;
71867;SDS011;59738;48.324;14.230;2022-07-10T02:07:10;7.47;;;5.30;;
71867;SDS011;59738;48.324;14.230;2022-07-10T02:09:38;6.40;;;4.93;;
71867;SDS011;59738;48.324;14.230;2022-07-10T02:12:08;8.15;;;4.40;;
71867;SDS011;59738;48.324;14.230;2022-07-10T02:14:37;6.70;;;4.77;;
71867;SDS011;59738;48.324;14.230;2022-07-10T02:17:06;8.23;;;4.75;;
71867;SDS011;59738;48.324;14.230;2022-07-10T02:19:34;7.47;;;5.00;;
71867;SDS011;59738;48.324;14.230;2022-07-10T02:22:02;5.90;;;4.93;;
71867;SDS011;59738;48.324;14.230;2022-07-10T02:24:30;5.70;;;4.80;;
71867;SDS011;59738;48.324;14.230;2022-07-10T02:26:58;6.37;;;4.87;;
71867;SDS011;59738;48.324;14.230;2022-07-10T02:29:27;7.65;;;4.90;;
71867;SDS011;59738;48.324;14.230;2022-07-10T02:31:55;6.85;;;5.25;;
71867;SDS011;59738;48.324;14.230;2022-07-10T02:34:22;7.88;;;4.65;;
71867;SDS011;59738;48.324;14.230;2022-07-10T02:36:51;7.53;;;5.53;;
71867;SDS011;59738;48.324;14.230;2022-07-10T02:39:19;7.33;;;5.03;;
71867;SDS011;59738;48.324;14.230;2022-07-10T02:41:49;6.32;;;5.10;;
71867;SDS011;59738;48.324;14.230;2022-07-10T02:44:16;9.05;;;5.32;;
71867;SDS011;59738;48.324;14.230;2022-07-10T02:46:45;7.90;;;5.18;;
71867;SDS011;59738;48.324;14.230;2022-07-10T02:49:13;8.52;;;5.47;;
71867;SDS011;59738;48.324;14.230;2022-07-10T02:51:41;8.90;;;5.50;;
71867;SDS011;59738;48.324;14.230;2022-07-10T02:54:08;6.88;;;5.35;;
71867;SDS011;59738;48.324;14.230;2022-07-10T02:56:36;9.43;;;5.50;;
71867;SDS011;59738;48.324;14.230;2022-07-10T02:59:04;7.03;;;4.97;;
71867;SDS011;59738;48.324;14.230;2022-07-10T03:01:32;8.02;;;4.63;;
71867;SDS011;59738;48.324;14.230;2022-07-10T03:04:01;10.53;;;5.73;;
71867;SDS011;59738;48.324;14.230;2022-07-10T03:06:29;7.43;;;5.18;;
71867;SDS011;59738;48.324;14.230;2022-07-10T03:08:57;9.55;;;5.05;;
71867;SDS011;59738;48.324;14.230;2022-07-10T03:11:25;5.90;;;4.80;;
71867;SDS011;59738;48.324;14.230;2022-07-10T03:13:52;9.40;;;5.45;;
71867;SDS011;59738;48.324;14.230;2022-07-10T03:16:20;8.93;;;5.33;;
71867;SDS011;59738;48.324;14.230;2022-07-10T03:18:48;12.02;;;5.03;;
71867;SDS011;59738;48.324;14.230;2022-07-10T03:21:17;8.73;;;4.85;;
71867;SDS011;59738;48.324;14.230;2022-07-10T03:23:45;7.05;;;4.85;;
71867;SDS011;59738;48.324;14.230;2022-07-10T03:26:12;7.88;;;5.32;;
71867;SDS011;59738;48.324;14.230;2022-07-10T03:28:40;8.87;;;4.97;;
71867;SDS011;59738;48.324;14.230;2022-07-10T03:31:08;12.52;;;5.15;;
71867;SDS011;59738;48.324;14.230;2022-07-10T03:33:35;7.90;;;5.45;;
71867;SDS011;59738;48.324;14.230;2022-07-10T03:36:04;10.30;;;5.38;;
71867;SDS011;59738;48.324;14.230;2022-07-10T03:38:34;8.68;;;5.22;;
71867;SDS011;59738;48.324;14.230;2022-07-10T03:41:01;9.70;;;5.40;;
71867;SDS011;59738;48.324;14.230;2022-07-10T03:43:29;9.32;;;5.18;;
71867;SDS011;59738;48.324;14.230;2022-07-10T03:45:57;9.15;;;5.22;;
71867;SDS011;59738;48.324;14.230;2022-07-10T03:48:25;11.15;;;5.28;;
71867;SDS011;59738;48.324;14.230;2022-07-10T03:50:52;6.80;;;5.22;;
71867;SDS011;59738;48.324;14.230;2022-07-10T03:53:20;8.20;;;5.10;;
71867;SDS011;59738;48.324;14.230;2022-07-10T03:55:49;8.25;;;5.28;;
71867;SDS011;59738;48.324;14.230;2022-07-10T03:58:17;7.95;;;5.20;;
71867;SDS011;59738;48.324;14.230;2022-07-10T04:00:44;11.25;;;4.95;;
71867;SDS011;59738;48.324;14.230;2022-07-10T04:03:11;6.43;;;4.88;;
71867;SDS011;59738;48.324;14.230;2022-07-10T04:05:39;6.23;;;5.17;;
71867;SDS011;59738;48.324;14.230;2022-07-10T04:08:07;6.30;;;4.97;;
71867;SDS011;59738;48.324;14.230;2022-07-10T04:10:35;6.30;;;5.03;;
71867;SDS011;59738;48.324;14.230;2022-07-10T04:13:04;8.02;;;5.15;;
71867;SDS011;59738;48.324;14.230;2022-07-10T04:15:32;7.80;;;4.95;;
71867;SDS011;59738;48.324;14.230;2022-07-10T04:18:00;8.63;;;5.20;;
71867;SDS011;59738;48.324;14.230;2022-07-10T04:20:27;6.80;;;5.00;;
71867;SDS011;59738;48.324;14.230;2022-07-10T04:22:56;8.23;;;5.15;;
71867;SDS011;59738;48.324;14.230;2022-07-10T04:25:23;6.93;;;5.35;;
71867;SDS011;59738;48.324;14.230;2022-07-10T04:27:51;8.68;;;5.72;;
71867;SDS011;59738;48.324;14.230;2022-07-10T04:30:20;8.03;;;5.40;;
71867;SDS011;59738;48.324;14.230;2022-07-10T04:32:48;7.15;;;5.30;;
71867;SDS011;59738;48.324;14.230;2022-07-10T04:35:16;8.00;;;5.35;;
71867;SDS011;59738;48.324;14.230;2022-07-10T04:37:44;7.30;;;5.03;;
71867;SDS011;59738;48.324;14.230;2022-07-10T04:40:12;7.68;;;5.00;;
71867;SDS011;59738;48.324;14.230;2022-07-10T04:42:40;6.17;;;4.83;;
71867;SDS011;59738;48.324;14.230;2022-07-10T04:45:08;8.82;;;5.50;;
71867;SDS011;59738;48.324;14.230;2022-07-10T04:47:38;7.60;;;5.30;;
71867;SDS011;59738;48.324;14.230;2022-07-10T04:50:06;7.38;;;5.20;;
71867;SDS011;59738;48.324;14.230;2022-07-10T04:52:35;8.57;;;5.05;;
71867;SDS011;59738;48.324;14.230;2022-07-10T04:55:03;9.50;;;5.23;;
71867;SDS011;59738;48.324;14.230;2022-07-10T04:57:31;7.53;;;5.43;;
71867;SDS011;59738;48.324;14.230;2022-07-10T04:59:59;9.02;;;5.18;;
71867;SDS011;59738;48.324;14.230;2022-07-10T05:02:26;9.07;;;5.38;;
71867;SDS011;59738;48.324;14.230;2022-07-10T05:04:55;10.30;;;5.40;;
71867;SDS011;59738;48.324;14.230;2022-07-10T05:07:23;8.17;;;5.43;;
71867;SDS011;59738;48.324;14.230;2022-07-10T05:09:52;10.25;;;5.88;;
71867;SDS011;59738;48.324;14.230;2022-07-10T05:12:20;7.18;;;5.40;;
71867;SDS011;59738;48.324;14.230;2022-07-10T05:14:47;7.70;;;5.63;;
71867;SDS011;59738;48.324;14.230;2022-07-10T05:17:15;8.98;;;5.75;;
71867;SDS011;59738;48.324;14.230;2022-07-10T05:19:43;6.53;;;5.20;;
71867;SDS011;59738;48.324;14.230;2022-07-10T05:22:12;9.25;;;5.70;;
71867;SDS011;59738;48.324;14.230;2022-07-10T05:24:40;10.52;;;5.55;;
71867;SDS011;59738;48.324;14.230;2022-07-10T05:27:07;8.20;;;5.43;;
71867;SDS011;59738;48.324;14.230;2022-07-10T05:29:35;8.32;;;5.15;;
71867;SDS011;59738;48.324;14.230;2022-07-10T05:32:03;7.53;;;5.40;;
71867;SDS011;59738;48.324;14.230;2022-07-10T05:34:31;7.47;;;5.25;;
71867;SDS011;59738;48.324;14.230;2022-07-10T05:36:58;6.57;;;5.22;;
71867;SDS011;59738;48.324;14.230;2022-07-10T05:39:28;6.38;;;5.35;;
71867;SDS011;59738;48.324;14.230;2022-07-10T05:41:55;6.97;;;5.28;;
71867;SDS011;59738;48.324;14.230;2022-07-10T05:44:23;7.07;;;5.03;;
71867;SDS011;59738;48.324;14.230;2022-07-10T05:46:52;7.35;;;4.85;;
71867;SDS011;59738;48.324;14.230;2022-07-10T05:49:22;7.93;;;5.68;;
71867;SDS011;59738;48.324;14.230;2022-07-10T05:51:50;8.40;;;5.68;;
71867;SDS011;59738;48.324;14.230;2022-07-10T05:54:19;7.20;;;5.45;;
71867;SDS011;59738;48.324;14.230;2022-07-10T05:56:48;9.33;;;5.87;;
71867;SDS011;59738;48.324;14.230;2022-07-10T05:59:16;8.80;;;5.72;;
71867;SDS011;59738;48.324;14.230;2022-07-10T06:01:44;8.05;;;5.68;;
71867;SDS011;59738;48.324;14.230;2022-07-10T06:04:12;7.15;;;5.55;;
71867;SDS011;59738;48.324;14.230;2022-07-10T06:06:40;7.88;;;5.57;;
71867;SDS011;59738;48.324;14.230;2022-07-10T06:09:08;10.57;;;5.87;;
71867;SDS011;59738;48.324;14.230;2022-07-10T06:11:36;10.02;;;5.45;;
71867;SDS011;59738;48.324;14.230;2022-07-10T06:14:11;7.47;;;5.38;;
71867;SDS011;59738;48.324;14.230;2022-07-10T06:16:39;9.32;;;5.72;;
71867;SDS011;59738;48.324;14.230;2022-07-10T06:19:07;9.48;;;6.03;;
71867;SDS011;59738;48.324;14.230;2022-07-10T06:21:34;8.07;;;5.83;;
71867;SDS011;59738;48.324;14.230;2022-07-10T06:24:04;9.82;;;5.95;;
71867;SDS011;59738;48.324;14.230;2022-07-10T06:26:34;9.10;;;6.63;;
71867;SDS011;59738;48.324;14.230;2022-07-10T06:29:07;9.73;;;7.10;;
71867;SDS011;59738;48.324;14.230;2022-07-10T06:31:36;9.95;;;6.43;;
71867;SDS011;59738;48.324;14.230;2022-07-10T06:34:05;9.97;;;6.97;;
71867;SDS011;59738;48.324;14.230;2022-07-10T06:36:33;9.98;;;7.18;;
71867;SDS011;59738;48.324;14.230;2022-07-10T06:39:01;8.10;;;6.60;;
71867;SDS011;59738;48.324;14.230;2022-07-10T06:41:30;9.95;;;6.72;;
71867;SDS011;59738;48.324;14.230;2022-07-10T06:43:58;8.15;;;6.55;;
71867;SDS011;59738;48.324;14.230;2022-07-10T06:46:28;8.93;;;6.57;;
71867;SDS011;59738;48.324;14.230;2022-07-10T06:48:57;10.95;;;6.97;;
71867;SDS011;59738;48.324;14.230;2022-07-10T06:51:26;9.35;;;6.70;;
71867;SDS011;59738;48.324;14.230;2022-07-10T06:54:02;9.80;;;6.13;;
71867;SDS011;59738;48.324;14.230;2022-07-10T06:56:31;9.10;;;6.55;;
71867;SDS011;59738;48.324;14.230;2022-07-10T06:58:58;8.97;;;6.40;;
71867;SDS011;59738;48.324;14.230;2022-07-10T07:01:26;11.57;;;6.57;;
71867;SDS011;59738;48.324;14.230;2022-07-10T07:03:54;8.95;;;6.55;;
71867;SDS011;59738;48.324;14.230;2022-07-10T07:06:23;9.40;;;6.45;;
71867;SDS011;59738;48.324;14.230;2022-07-10T07:08:50;11.13;;;6.60;;
71867;SDS011;59738;48.324;14.230;2022-07-10T07:11:19;9.80;;;7.47;;
71867;SDS011;59738;48.324;14.230;2022-07-10T07:13:49;9.73;;;6.80;;
71867;SDS011;59738;48.324;14.230;2022-07-10T07:16:17;10.43;;;6.43;;
71867;SDS011;59738;48.324;14.230;2022-07-10T07:18:50;9.05;;;6.30;;
71867;SDS011;59738;48.324;14.230;2022-07-10T07:21:18;8.75;;;5.70;;
71867;SDS011;59738;48.324;14.230;2022-07-10T07:24:05;8.27;;;6.00;;
71867;SDS011;59738;48.324;14.230;2022-07-10T07:26:33;8.30;;;5.93;;
71867;SDS011;59738;48.324;14.230;2022-07-10T07:36:31;7.70;;;5.50;;
71867;SDS011;59738;48.324;14.230;2022-07-10T07:38:58;8.90;;;5.80;;
71867;SDS011;59738;48.324;14.230;2022-07-10T07:41:28;7.10;;;5.30;;
71867;SDS011;59738;48.324;14.230;2022-07-10T07:43:55;7.85;;;5.32;;
71867;SDS011;59738;48.324;14.230;2022-07-10T07:46:23;6.30;;;5.10;;
71867;SDS011;59738;48.324;14.230;2022-07-10T07:49:00;6.35;;;4.70;;
71867;SDS011;59738;48.324;14.230;2022-07-10T07:51:28;7.63;;;4.90;;
71867;SDS011;59738;48.324;14.230;2022-07-10T07:54:03;7.32;;;4.93;;
71867;SDS011;59738;48.324;14.230;2022-07-10T07:56:36;6.68;;;4.63;;
71867;SDS011;59738;48.324;14.230;2022-07-10T07:59:07;5.85;;;4.18;;
71867;SDS011;59738;48.324;14.230;2022-07-10T08:07:32;5.25;;;4.13;;
71867;SDS011;59738;48.324;14.230;2022-07-10T08:10:01;5.10;;;4.25;;
71867;SDS011;59738;48.324;14.230;2022-07-10T08:12:33;4.80;;;4.07;;
71867;SDS011;59738;48.324;14.230;2022-07-10T08:15:02;6.43;;;4.65;;
71867;SDS011;59738;48.324;14.230;2022-07-10T08:17:33;6.87;;;4.70;;
71867;SDS011;59738;48.324;14.230;2022-07-10T08:20:07;6.15;;;4.65;;
71867;SDS011;59738;48.324;14.230;2022-07-10T08:22:46;7.28;;;5.32;;
71867;SDS011;59738;48.324;14.230;2022-07-10T08:25:15;7.68;;;5.43;;
71867;SDS011;59738;48.324;14.230;2022-07-10T08:27:49;6.40;;;5.10;;
71867;SDS011;59738;48.324;14.230;2022-07-10T08:30:20;7.53;;;5.27;;
71867;SDS011;59738;48.324;14.230;2022-07-10T08:32:49;6.97;;;5.00;;
71867;SDS011;59738;48.324;14.230;2022-07-10T08:35:18;6.28;;;4.55;;
71867;SDS011;59738;48.324;14.230;2022-07-10T08:37:46;5.18;;;4.40;;
71867;SDS011;59738;48.324;14.230;2022-07-10T08:40:16;6.00;;;4.30;;
71867;SDS011;59738;48.324;14.230;2022-07-10T08:59:18;3.30;;;2.90;;
71867;SDS011;59738;48.324;14.230;2022-07-10T09:11:55;2.60;;;2.28;;
71867;SDS011;59738;48.324;14.230;2022-07-10T09:25:35;2.70;;;2.30;;
71867;SDS011;59738;48.324;14.230;2022-07-10T09:28:12;2.75;;;2.55;;
71867;SDS011;59738;48.324;14.230;2022-07-10T09:30:43;3.50;;;2.30;;
71867;SDS011;59738;48.324;14.230;2022-07-10T09:33:14;2.83;;;2.20;;
71867;SDS011;59738;48.324;14.230;2022-07-10T09:36:02;5.75;;;2.20;;
71867;SDS011;59738;48.324;14.230;2022-07-10T09:41:26;5.95;;;2.70;;
71867;SDS011;59738;48.324;14.230;2022-07-10T09:43:58;3.60;;;2.38;;
71867;SDS011;59738;48.324;14.230;2022-07-10T09:46:28;2.73;;;2.10;;
71867;SDS011;59738;48.324;14.230;2022-07-10T09:49:02;2.55;;;2.00;;
71867;SDS011;59738;48.324;14.230;2022-07-10T09:51:34;2.85;;;2.20;;
71867;SDS011;59738;48.324;14.230;2022-07-10T09:54:04;3.90;;;1.85;;
71867;SDS011;59738;48.324;14.230;2022-07-10T09:56:38;3.90;;;2.25;;
71867;SDS011;59738;48.324;14.230;2022-07-10T09:59:11;4.37;;;1.80;;
71867;SDS011;59738;48.324;14.230;2022-07-10T10:01:43;3.88;;;1.90;;
71867;SDS011;59738;48.324;14.230;2022-07-10T10:17:43;3.53;;;1.70;;
71867;SDS011;59738;48.324;14.230;2022-07-10T10:23:43;3.67;;;2.00;;
71867;SDS011;59738;48.324;14.230;2022-07-10T10:26:29;4.35;;;1.85;;
71867;SDS011;59738;48.324;14.230;2022-07-10T10:31:57;1.80;;;1.60;;
71867;SDS011;59738;48.324;14.230;2022-07-10T10:34:39;3.13;;;1.50;;
71867;SDS011;59738;48.324;14.230;2022-07-10T10:41:23;2.42;;;1.92;;
71867;SDS011;59738;48.324;14.230;2022-07-10T10:47:10;4.43;;;1.70;;
71867;SDS011;59738;48.324;14.230;2022-07-10T10:49:51;2.58;;;1.77;;
71867;SDS011;59738;48.324;14.230;2022-07-10T11:14:14;4.70;;;1.30;;
71867;SDS011;59738;48.324;14.230;2022-07-10T11:16:52;2.77;;;1.47;;
71867;SDS011;59738;48.324;14.230;2022-07-10T11:19:31;3.25;;;1.40;;
71867;SDS011;59738;48.324;14.230;2022-07-10T11:22:13;3.20;;;1.73;;
71867;SDS011;59738;48.324;14.230;2022-07-10T11:25:25;5.75;;;1.70;;
71867;SDS011;59738;48.324;14.230;2022-07-10T11:31:24;4.27;;;1.50;;
71867;SDS011;59738;48.324;14.230;2022-07-10T11:33:54;4.65;;;1.60;;
71867;SDS011;59738;48.324;14.230;2022-07-10T11:36:23;3.55;;;1.73;;
71867;SDS011;59738;48.324;14.230;2022-07-10T11:38:59;3.22;;;1.70;;
71867;SDS011;59738;48.324;14.230;2022-07-10T11:41:28;2.28;;;1.63;;
71867;SDS011;59738;48.324;14.230;2022-07-10T11:43:56;5.13;;;1.77;;
71867;SDS011;59738;48.324;14.230;2022-07-10T11:46:26;4.05;;;1.60;;
71867;SDS011;59738;48.324;14.230;2022-07-10T11:48:55;2.58;;;1.30;;
71867;SDS011;59738;48.324;14.230;2022-07-10T11:51:24;1.65;;;1.27;;
71867;SDS011;59738;48.324;14.230;2022-07-10T11:53:53;3.78;;;1.60;;
71867;SDS011;59738;48.324;14.230;2022-07-10T11:56:24;2.73;;;1.63;;
71867;SDS011;59738;48.324;14.230;2022-07-10T11:58:56;3.33;;;1.50;;
71867;SDS011;59738;48.324;14.230;2022-07-10T12:01:25;2.40;;;1.52;;
71867;SDS011;59738;48.324;14.230;2022-07-10T12:03:55;1.50;;;1.20;;
71867;SDS011;59738;48.324;14.230;2022-07-10T12:06:24;1.30;;;1.20;;
71867;SDS011;59738;48.324;14.230;2022-07-10T12:08:52;3.40;;;1.80;;
71867;SDS011;59738;48.324;14.230;2022-07-10T12:11:21;3.30;;;1.33;;
71867;SDS011;59738;48.324;14.230;2022-07-10T12:13:51;3.45;;;1.50;;
71867;SDS011;59738;48.324;14.230;2022-07-10T12:16:20;1.90;;;1.40;;
71867;SDS011;59738;48.324;14.230;2022-07-10T12:18:49;3.13;;;1.70;;
71867;SDS011;59738;48.324;14.230;2022-07-10T12:21:17;4.03;;;1.30;;
71867;SDS011;59738;48.324;14.230;2022-07-10T12:23:55;3.55;;;1.60;;
71867;SDS011;59738;48.324;14.230;2022-07-10T12:26:32;1.75;;;1.33;;
71867;SDS011;59738;48.324;14.230;2022-07-10T12:29:02;2.80;;;1.20;;
71867;SDS011;59738;48.324;14.230;2022-07-10T12:31:34;2.83;;;1.38;;
71867;SDS011;59738;48.324;14.230;2022-07-10T12:34:08;6.43;;;1.67;;
71867;SDS011;59738;48.324;14.230;2022-07-10T12:36:43;3.00;;;1.45;;
71867;SDS011;59738;48.324;14.230;2022-07-10T12:39:13;4.60;;;1.50;;
71867;SDS011;59738;48.324;14.230;2022-07-10T12:41:59;2.65;;;1.48;;
71867;SDS011;59738;48.324;14.230;2022-07-10T12:44:36;3.35;;;1.30;;
71867;SDS011;59738;48.324;14.230;2022-07-10T12:47:07;2.13;;;1.33;;
71867;SDS011;59738;48.324;14.230;2022-07-10T12:49:51;3.70;;;1.33;;
71867;SDS011;59738;48.324;14.230;2022-07-10T12:52:21;2.45;;;1.50;;
71867;SDS011;59738;48.324;14.230;2022-07-10T12:57:48;2.70;;;1.17;;
71867;SDS011;59738;48.324;14.230;2022-07-10T13:00:19;1.33;;;1.20;;
71867;SDS011;59738;48.324;14.230;2022-07-10T13:02:48;3.05;;;1.35;;
71867;SDS011;59738;48.324;14.230;2022-07-10T13:05:24;2.80;;;1.40;;
71867;SDS011;59738;48.324;14.230;2022-07-10T13:08:03;2.95;;;1.10;;
71867;SDS011;59738;48.324;14.230;2022-07-10T13:10:33;1.45;;;1.30;;
71867;SDS011;59738;48.324;14.230;2022-07-10T13:13:03;3.33;;;1.20;;
71867;SDS011;59738;48.324;14.230;2022-07-10T13:15:36;2.85;;;1.10;;
71867;SDS011;59738;48.324;14.230;2022-07-10T13:18:06;2.65;;;1.58;;
71867;SDS011;59738;48.324;14.230;2022-07-10T13:20:34;7.47;;;1.45;;
71867;SDS011;59738;48.324;14.230;2022-07-10T13:23:03;1.73;;;1.40;;
71867;SDS011;59738;48.324;14.230;2022-07-10T13:25:32;3.40;;;1.20;;
71867;SDS011;59738;48.324;14.230;2022-07-10T13:31:34;4.72;;;1.55;;
71867;SDS011;59738;48.324;14.230;2022-07-10T13:34:19;2.50;;;1.42;;
71867;SDS011;59738;48.324;14.230;2022-07-10T13:36:52;2.55;;;1.10;;
71867;SDS011;59738;48.324;14.230;2022-07-10T13:42:21;1.92;;;1.38;;
71867;SDS011;59738;48.324;14.230;2022-07-10T13:44:50;1.70;;;1.38;;
71867;SDS011;59738;48.324;14.230;2022-07-10T13:47:26;3.78;;;1.20;;
71867;SDS011;59738;48.324;14.230;2022-07-10T13:49:54;2.00;;;1.20;;
71867;SDS011;59738;48.324;14.230;2022-07-10T13:52:23;3.07;;;1.20;;
71867;SDS011;59738;48.324;14.230;2022-07-10T13:54:51;1.67;;;1.10;;
71867;SDS011;59738;48.324;14.230;2022-07-10T13:57:20;1.60;;;1.50;;
71867;SDS011;59738;48.324;14.230;2022-07-10T13:59:47;2.70;;;1.15;;
71867;SDS011;59738;48.324;14.230;2022-07-10T14:02:16;2.50;;;1.40;;
71867;SDS011;59738;48.324;14.230;2022-07-10T14:04:46;1.67;;;1.00;;
71867;SDS011;59738;48.324;14.230;2022-07-10T14:07:13;4.60;;;1.30;;
71867;SDS011;59738;48.324;14.230;2022-07-10T14:09:41;5.45;;;1.45;;
71867;SDS011;59738;48.324;14.230;2022-07-10T14:12:09;1.25;;;1.10;;
71867;SDS011;59738;48.324;14.230;2022-07-10T14:14:38;4.25;;;1.25;;
71867;SDS011;59738;48.324;14.230;2022-07-10T14:17:05;3.63;;;1.40;;
71867;SDS011;59738;48.324;14.230;2022-07-10T14:19:33;1.80;;;1.25;;
71867;SDS011;59738;48.324;14.230;2022-07-10T14:22:03;1.77;;;1.35;;
71867;SDS011;59738;48.324;14.230;2022-07-10T14:24:31;6.00;;;1.17;;
71867;SDS011;59738;48.324;14.230;2022-07-10T14:26:58;1.42;;;1.08;;
71867;SDS011;59738;48.324;14.230;2022-07-10T14:29:26;3.87;;;1.20;;
71867;SDS011;59738;48.324;14.230;2022-07-10T14:31:55;2.58;;;1.00;;
71867;SDS011;59738;48.324;14.230;2022-07-10T14:34:30;2.13;;;1.40;;
71867;SDS011;59738;48.324;14.230;2022-07-10T14:36:59;3.08;;;1.08;;
71867;SDS011;59738;48.324;14.230;2022-07-10T14:39:29;2.90;;;1.27;;
71867;SDS011;59738;48.324;14.230;2022-07-10T14:41:59;1.53;;;1.43;;
71867;SDS011;59738;48.324;14.230;2022-07-10T14:44:27;1.55;;;1.20;;
71867;SDS011;59738;48.324;14.230;2022-07-10T14:46:55;1.77;;;1.00;;
71867;SDS011;59738;48.324;14.230;2022-07-10T14:49:23;4.10;;;1.35;;
71867;SDS011;59738;48.324;14.230;2022-07-10T14:51:52;3.67;;;1.15;;
71867;SDS011;59738;48.324;14.230;2022-07-10T14:54:20;1.47;;;1.10;;
71867;SDS011;59738;48.324;14.230;2022-07-10T14:56:50;2.08;;;1.42;;
71867;SDS011;59738;48.324;14.230;2022-07-10T14:59:19;1.20;;;1.10;;
71867;SDS011;59738;48.324;14.230;2022-07-10T15:01:47;6.22;;;1.17;;
71867;SDS011;59738;48.324;14.230;2022-07-10T15:04:15;3.03;;;1.23;;
71867;SDS011;59738;48.324;14.230;2022-07-10T15:06:43;2.50;;;1.27;;
71867;SDS011;59738;48.324;14.230;2022-07-10T15:09:10;3.15;;;1.20;;
71867;SDS011;59738;48.324;14.230;2022-07-10T15:11:38;3.88;;;1.20;;
71867;SDS011;59738;48.324;14.230;2022-07-10T15:14:07;2.63;;;1.20;;
71867;SDS011;59738;48.324;14.230;2022-07-10T15:16:35;4.75;;;1.42;;
71867;SDS011;59738;48.324;14.230;2022-07-10T15:19:02;4.20;;;1.17;;
71867;SDS011;59738;48.324;14.230;2022-07-10T15:21:30;1.20;;;1.10;;
71867;SDS011;59738;48.324;14.230;2022-07-10T15:24:01;2.15;;;1.50;;
71867;SDS011;59738;48.324;14.230;2022-07-10T15:26:30;4.35;;;1.10;;
71867;SDS011;59738;48.324;14.230;2022-07-10T15:28:59;1.08;;;1.05;;
71867;SDS011;59738;48.324;14.230;2022-07-10T15:31:29;2.37;;;1.10;;
71867;SDS011;59738;48.324;14.230;2022-07-10T15:33:56;1.42;;;1.00;;
71867;SDS011;59738;48.324;14.230;2022-07-10T15:36:26;3.75;;;1.35;;
71867;SDS011;59738;48.324;14.230;2022-07-10T15:38:55;2.90;;;1.10;;
71867;SDS011;59738;48.324;14.230;2022-07-10T15:41:23;3.33;;;1.27;;
71867;SDS011;59738;48.324;14.230;2022-07-10T15:43:51;1.70;;;1.20;;
71867;SDS011;59738;48.324;14.230;2022-07-10T15:46:19;1.88;;;1.13;;
71867;SDS011;59738;48.324;14.230;2022-07-10T15:48:48;3.80;;;1.25;;
71867;SDS011;59738;48.324;14.230;2022-07-10T15:51:16;4.63;;;1.20;;
71867;SDS011;59738;48.324;14.230;2022-07-10T15:53:44;3.83;;;1.20;;
71867;SDS011;59738;48.324;14.230;2022-07-10T15:56:12;2.93;;;1.10;;
71867;SDS011;59738;48.324;14.230;2022-07-10T15:58:40;1.10;;;1.00;;
71867;SDS011;59738;48.324;14.230;2022-07-10T16:01:10;3.97;;;1.65;;
71867;SDS011;59738;48.324;14.230;2022-07-10T16:03:40;3.85;;;1.20;;
71867;SDS011;59738;48.324;14.230;2022-07-10T16:06:11;3.28;;;1.33;;
71867;SDS011;59738;48.324;14.230;2022-07-10T16:08:39;2.70;;;1.20;;
71867;SDS011;59738;48.324;14.230;2022-07-10T16:11:08;2.35;;;1.73;;
71867;SDS011;59738;48.324;14.230;2022-07-10T16:13:37;2.10;;;1.30;;
71867;SDS011;59738;48.324;14.230;2022-07-10T16:16:05;3.33;;;1.33;;
71867;SDS011;59738;48.324;14.230;2022-07-10T16:18:33;2.35;;;1.20;;
71867;SDS011;59738;48.324;14.230;2022-07-10T16:21:01;3.13;;;1.20;;
71867;SDS011;59738;48.324;14.230;2022-07-10T16:23:30;3.42;;;1.17;;
71867;SDS011;59738;48.324;14.230;2022-07-10T16:25:58;2.67;;;1.40;;
71867;SDS011;59738;48.324;14.230;2022-07-10T16:28:31;2.15;;;1.95;;
71867;SDS011;59738;48.324;14.230;2022-07-10T16:30:59;2.55;;;1.38;;
71867;SDS011;59738;48.324;14.230;2022-07-10T16:33:27;3.33;;;1.03;;
71867;SDS011;59738;48.324;14.230;2022-07-10T16:35:55;1.63;;;1.10;;
71867;SDS011;59738;48.324;14.230;2022-07-10T16:38:24;2.83;;;1.50;;
71867;SDS011;59738;48.324;14.230;2022-07-10T16:40:55;2.22;;;1.10;;
71867;SDS011;59738;48.324;14.230;2022-07-10T16:43:23;3.00;;;1.40;;